Granite, Oklahoma
Current Conditions -  °F | °C
As of 3:35 AM on Monday 20 Oct 2014 (Local Time) from KAXS Reporting Station
Clear Clear  
Wind Chill: 60°   Ceiling: Unl
Heat Index: 60°   Visibility: 10mi
Dew Point: 56°   Wind: 7mph
Humidity: 87%   Direction: 120°ESE
Pressure: 30.06"   Gusts: NA
Location:  34.96°N, 99.38°W
Report Text: KAXS 200835Z AUTO 12006KT 10SM CLR 15/13 A3006 RMK AO2 T01530131
Loading
Personal Weather Stations






























Interactive Weather Map
Tropical Storm Tracking
New forecast layout! Learn more

10-Day Weather Forecast

Advertisements
Track Severe Weather on mobile